Time;durP1;ratioP1;P1;durP2;ratioP2;P2;SDS_P1;SDS_P2;PMS_P1;PMS_P2;Temp;Humidity;BMP_temperature;BMP_pressure;BME280_temperature;BME280_humidity;BME280_pressure;Samples;Min_cycle;Max_cycle;Signal;HPM_P1;HPM_P2
2023/04/13 00:00:29;;;;;;;5.25;1.35;;;;;;;;;;4992022;28;20030;-66
2023/04/13 00:02:55;;;;;;;4.75;1.38;;;;;;;;;;4991597;28;20126;-66
2023/04/13 00:05:21;;;;;;;3.65;1.20;;;;;;;;;;4991817;28;20105;-65
2023/04/13 00:07:48;;;;;;;4.00;1.05;;;;;;;;;;4991658;28;20022;-65
2023/04/13 00:10:20;;;;;;;4.15;1.35;;;;;;;;;;4991733;28;20114;-65
2023/04/13 00:12:46;;;;;;;4.28;1.10;;;;;;;;;;4991483;28;20069;-64
2023/04/13 00:15:13;;;;;;;4.32;1.10;;;;;;;;;;4991567;28;20097;-66
2023/04/13 00:17:41;;;;;;;4.10;1.48;;;;;;;;;;4991643;28;20030;-65
2023/04/13 00:20:11;;;;;;;4.95;1.40;;;;;;;;;;4991431;28;20407;-65
2023/04/13 00:22:37;;;;;;;7.15;1.88;;;;;;;;;;4991359;28;20034;-66
2023/04/13 00:25:03;;;;;;;5.53;1.30;;;;;;;;;;4991612;28;20023;-64
2023/04/13 00:27:29;;;;;;;5.13;1.42;;;;;;;;;;4991896;28;20474;-64
2023/04/13 00:29:56;;;;;;;7.32;1.50;;;;;;;;;;4991358;28;20033;-64
2023/04/13 00:32:22;;;;;;;4.35;1.42;;;;;;;;;;4991592;28;20031;-65
2023/04/13 00:34:48;;;;;;;5.45;1.25;;;;;;;;;;4991286;28;20037;-66
2023/04/13 00:37:14;;;;;;;7.20;1.85;;;;;;;;;;4991443;28;20022;-63
2023/04/13 00:39:42;;;;;;;6.32;1.83;;;;;;;;;;4991199;28;20030;-64
2023/04/13 00:42:08;;;;;;;8.05;1.85;;;;;;;;;;4991084;28;20058;-65
2023/04/13 00:44:34;;;;;;;5.70;1.75;;;;;;;;;;4991281;28;20105;-64
2023/04/13 00:47:03;;;;;;;5.43;1.50;;;;;;;;;;4992390;28;20030;-65
2023/04/13 00:49:30;;;;;;;5.63;1.60;;;;;;;;;;4995814;28;20179;-65
2023/04/13 00:51:56;;;;;;;5.45;1.83;;;;;;;;;;4995003;28;20121;-65
2023/04/13 00:54:22;;;;;;;6.28;1.60;;;;;;;;;;4995277;28;20587;-63
2023/04/13 00:56:49;;;;;;;6.20;1.60;;;;;;;;;;4995012;28;20029;-64
2023/04/13 00:59:16;;;;;;;6.63;1.98;;;;;;;;;;4995387;28;20058;-65
2023/04/13 01:01:45;;;;;;;5.93;2.72;;;;;;;;;;4994678;28;20549;-65
2023/04/13 01:04:17;;;;;;;7.05;2.10;;;;;;;;;;4994995;28;20031;-64
2023/04/13 01:06:48;;;;;;;6.70;1.45;;;;;;;;;;4994813;28;20029;-64
2023/04/13 01:09:15;;;;;;;8.25;1.73;;;;;;;;;;4994994;28;20036;-65
2023/04/13 01:11:51;;;;;;;5.15;2.00;;;;;;;;;;4994812;28;20022;-65
2023/04/13 01:14:20;;;;;;;6.90;1.92;;;;;;;;;;4994919;28;20509;-65
2023/04/13 01:16:49;;;;;;;6.45;1.80;;;;;;;;;;4994624;28;20071;-64
2023/04/13 01:19:22;;;;;;;6.60;1.50;;;;;;;;;;4994934;28;20065;-64
2023/04/13 01:21:53;;;;;;;5.57;1.85;;;;;;;;;;4994454;28;20049;-63
2023/04/13 01:24:37;;;;;;;6.22;1.75;;;;;;;;;;4994672;28;20157;-64
2023/04/13 01:27:10;;;;;;;5.50;1.75;;;;;;;;;;4994721;28;20033;-64
2023/04/13 01:29:37;;;;;;;6.18;1.90;;;;;;;;;;4994226;28;20041;-63
2023/04/13 01:32:03;;;;;;;5.25;1.40;;;;;;;;;;4994507;28;20042;-64
2023/04/13 01:34:30;;;;;;;6.78;1.85;;;;;;;;;;4994821;28;20033;-64
2023/04/13 01:36:56;;;;;;;5.90;1.70;;;;;;;;;;4994281;28;20027;-64
2023/04/13 01:39:24;;;;;;;5.18;1.52;;;;;;;;;;4994404;28;20094;-65
2023/04/13 01:41:50;;;;;;;5.63;1.95;;;;;;;;;;4993871;28;20042;-64
2023/04/13 01:44:16;;;;;;;5.30;1.48;;;;;;;;;;4994430;28;20027;-64
2023/04/13 01:46:45;;;;;;;5.30;1.73;;;;;;;;;;4994149;28;20036;-64
2023/04/13 01:49:12;;;;;;;5.10;1.38;;;;;;;;;;4994203;28;20026;-64
2023/04/13 01:51:40;;;;;;;6.82;1.75;;;;;;;;;;4994024;28;20027;-64
2023/04/13 01:54:19;;;;;;;5.32;1.63;;;;;;;;;;4994181;28;20018;-63
2023/04/13 01:56:45;;;;;;;6.03;1.58;;;;;;;;;;4993811;28;20022;-63
2023/04/13 01:59:12;;;;;;;4.75;1.50;;;;;;;;;;4993634;28;20101;-64
2023/04/13 02:01:41;;;;;;;6.45;1.80;;;;;;;;;;4993621;28;20502;-64
2023/04/13 02:04:08;;;;;;;3.88;1.45;;;;;;;;;;4994117;28;20080;-64
2023/04/13 02:06:35;;;;;;;5.70;1.60;;;;;;;;;;4993674;28;20030;-64
2023/04/13 02:09:05;;;;;;;5.38;1.60;;;;;;;;;;4994114;28;20514;-63
2023/04/13 02:11:32;;;;;;;6.78;1.85;;;;;;;;;;4994111;28;20038;-64
2023/04/13 02:13:58;;;;;;;4.65;1.45;;;;;;;;;;4993939;28;20092;-64
2023/04/13 02:16:24;;;;;;;6.50;1.52;;;;;;;;;;4992543;28;20492;-64
2023/04/13 02:18:50;;;;;;;5.25;1.38;;;;;;;;;;4993369;28;20105;-64
2023/04/13 02:21:16;;;;;;;5.10;1.50;;;;;;;;;;4993630;28;20042;-64
2023/04/13 02:23:43;;;;;;;4.85;1.20;;;;;;;;;;4993456;28;20026;-64
2023/04/13 02:26:11;;;;;;;2.83;1.27;;;;;;;;;;4993559;28;20034;-64
2023/04/13 02:28:39;;;;;;;5.38;1.38;;;;;;;;;;4993130;28;20026;-64
2023/04/13 02:31:05;;;;;;;5.15;1.38;;;;;;;;;;4993678;28;20113;-64
2023/04/13 02:33:31;;;;;;;4.13;1.48;;;;;;;;;;4992369;28;20034;-64
2023/04/13 02:35:58;;;;;;;6.22;1.67;;;;;;;;;;4993697;28;20487;-64
2023/04/13 02:38:25;;;;;;;4.35;1.55;;;;;;;;;;4993380;28;20069;-64
2023/04/13 02:40:58;;;;;;;5.22;1.60;;;;;;;;;;4992726;28;20564;-64
2023/04/13 02:43:25;;;;;;;3.83;1.40;;;;;;;;;;4993064;28;20038;-64
2023/04/13 02:45:51;;;;;;;5.50;1.50;;;;;;;;;;4992842;28;20061;-64
2023/04/13 02:48:18;;;;;;;4.93;1.20;;;;;;;;;;4993286;28;20454;-64
2023/04/13 02:50:44;;;;;;;6.05;1.65;;;;;;;;;;4992855;28;20050;-64
2023/04/13 02:53:10;;;;;;;2.28;1.08;;;;;;;;;;4993030;28;20049;-64
2023/04/13 02:55:37;;;;;;;4.88;1.40;;;;;;;;;;4992787;28;20026;-64
2023/04/13 02:58:03;;;;;;;5.45;1.45;;;;;;;;;;4993144;28;20040;-64
2023/04/13 03:00:31;;;;;;;6.35;1.60;;;;;;;;;;4993168;28;20105;-64
2023/04/13 03:02:58;;;;;;;4.72;1.40;;;;;;;;;;4993331;28;20125;-64
2023/04/13 03:05:24;;;;;;;4.25;1.60;;;;;;;;;;4992856;28;20054;-64
2023/04/13 03:07:50;;;;;;;4.13;1.35;;;;;;;;;;4992600;28;20410;-64
2023/04/13 03:10:17;;;;;;;4.78;1.45;;;;;;;;;;4991830;28;20022;-64
2023/04/13 03:12:43;;;;;;;4.65;1.40;;;;;;;;;;4992613;28;20026;-64
2023/04/13 03:15:10;;;;;;;6.10;1.70;;;;;;;;;;4992784;28;20077;-64
2023/04/13 03:17:40;;;;;;;5.45;1.50;;;;;;;;;;4992431;28;20045;-64
2023/04/13 03:20:11;;;;;;;4.22;1.13;;;;;;;;;;4992575;28;20030;-64
2023/04/13 03:22:38;;;;;;;3.83;1.20;;;;;;;;;;4992232;28;20085;-64
2023/04/13 03:25:04;;;;;;;4.10;1.42;;;;;;;;;;4992362;28;20573;-64
2023/04/13 03:27:30;;;;;;;4.70;1.42;;;;;;;;;;4992837;28;20033;-66
2023/04/13 03:29:56;;;;;;;6.22;1.60;;;;;;;;;;4992159;28;20025;-63
2023/04/13 03:32:22;;;;;;;5.63;1.42;;;;;;;;;;4992333;28;20468;-64
2023/04/13 03:34:49;;;;;;;6.25;1.90;;;;;;;;;;4992017;28;20108;-63
2023/04/13 03:37:15;;;;;;;3.38;1.20;;;;;;;;;;4992283;28;20446;-64
2023/04/13 03:39:41;;;;;;;5.65;1.80;;;;;;;;;;4991844;28;20463;-64
2023/04/13 03:42:07;;;;;;;4.72;1.60;;;;;;;;;;4992041;28;20060;-64
2023/04/13 03:44:33;;;;;;;3.35;1.08;;;;;;;;;;4991993;28;20022;-63
2023/04/13 03:47:00;;;;;;;5.63;1.42;;;;;;;;;;4992366;28;20045;-64
2023/04/13 03:49:26;;;;;;;4.38;1.73;;;;;;;;;;4992071;28;20053;-64
2023/04/13 03:51:52;;;;;;;4.70;1.85;;;;;;;;;;4991658;28;20070;-62
2023/04/13 03:54:18;;;;;;;4.57;1.42;;;;;;;;;;4991992;28;20070;-62
2023/04/13 03:56:44;;;;;;;4.93;1.73;;;;;;;;;;4991906;28;20034;-62
2023/04/13 03:59:10;;;;;;;4.43;1.50;;;;;;;;;;4991933;28;20033;-62
2023/04/13 04:01:37;;;;;;;4.22;1.10;;;;;;;;;;4991459;28;20042;-62
2023/04/13 04:04:03;;;;;;;4.95;1.55;;;;;;;;;;4991551;28;20029;-64
2023/04/13 04:06:30;;;;;;;6.00;1.63;;;;;;;;;;4991901;28;20034;-64
2023/04/13 04:08:56;;;;;;;4.65;1.55;;;;;;;;;;4991537;28;20038;-62
2023/04/13 04:11:22;;;;;;;4.93;1.80;;;;;;;;;;4991649;28;20077;-62
2023/04/13 04:13:48;;;;;;;6.70;1.65;;;;;;;;;;4991411;28;20026;-63
2023/04/13 04:16:15;;;;;;;6.30;1.90;;;;;;;;;;4991663;28;20057;-63
2023/04/13 04:18:41;;;;;;;3.78;1.48;;;;;;;;;;4991350;28;20033;-62
2023/04/13 04:21:07;;;;;;;5.13;1.67;;;;;;;;;;4991155;28;20081;-63
2023/04/13 04:23:36;;;;;;;5.57;2.00;;;;;;;;;;4979043;28;20039;-62
2023/04/13 04:26:03;;;;;;;6.40;1.73;;;;;;;;;;4971962;28;20063;-64
2023/04/13 04:28:29;;;;;;;5.20;1.65;;;;;;;;;;4972143;28;20419;-64
2023/04/13 04:30:59;;;;;;;4.43;1.27;;;;;;;;;;4962098;28;20027;-64
2023/04/13 04:33:25;;;;;;;4.90;1.58;;;;;;;;;;4952737;29;20035;-65
2023/04/13 04:35:52;;;;;;;4.93;1.70;;;;;;;;;;4952625;29;20034;-64
2023/04/13 04:38:20;;;;;;;4.45;1.33;;;;;;;;;;4952956;29;20093;-64
2023/04/13 04:40:47;;;;;;;5.95;1.48;;;;;;;;;;4952183;29;20037;-64
2023/04/13 04:43:13;;;;;;;4.80;1.55;;;;;;;;;;4952505;29;20504;-64
2023/04/13 04:45:42;;;;;;;5.18;1.40;;;;;;;;;;4952310;29;20361;-64
2023/04/13 04:48:08;;;;;;;5.30;1.58;;;;;;;;;;4968503;28;20381;-64
2023/04/13 04:50:36;;;;;;;4.63;1.42;;;;;;;;;;4971693;28;20460;-64
2023/04/13 04:53:02;;;;;;;5.20;1.80;;;;;;;;;;4971960;28;20058;-65
2023/04/13 04:55:28;;;;;;;5.45;1.60;;;;;;;;;;4970380;28;20427;-64
2023/04/13 04:57:55;;;;;;;5.00;1.50;;;;;;;;;;4971538;28;20471;-63
2023/04/13 05:00:21;;;;;;;8.27;1.77;;;;;;;;;;4971197;28;20027;-63
2023/04/13 05:02:49;;;;;;;6.00;1.60;;;;;;;;;;4971139;28;20117;-63
2023/04/13 05:05:15;;;;;;;4.30;1.40;;;;;;;;;;4971060;28;20168;-64
2023/04/13 05:07:41;;;;;;;6.68;1.65;;;;;;;;;;4971772;28;20055;-63
2023/04/13 05:10:08;;;;;;;6.72;1.50;;;;;;;;;;4971553;28;20034;-64
2023/04/13 05:12:34;;;;;;;3.97;1.30;;;;;;;;;;4970786;28;20513;-63
2023/04/13 05:15:00;;;;;;;6.07;1.73;;;;;;;;;;4971873;28;20022;-63
2023/04/13 05:17:27;;;;;;;5.90;2.08;;;;;;;;;;4984028;28;20033;-63
2023/04/13 05:19:53;;;;;;;4.38;1.50;;;;;;;;;;4970644;28;20391;-64
2023/04/13 05:22:20;;;;;;;5.25;1.35;;;;;;;;;;4971517;28;20114;-63
2023/04/13 05:24:46;;;;;;;4.45;1.42;;;;;;;;;;4971310;28;20034;-63
2023/04/13 05:27:14;;;;;;;6.88;1.63;;;;;;;;;;4971874;28;20027;-64
2023/04/13 05:29:40;;;;;;;5.13;1.52;;;;;;;;;;4971167;28;20157;-63
2023/04/13 05:32:06;;;;;;;3.33;1.33;;;;;;;;;;4971768;28;20080;-63
2023/04/13 05:34:34;;;;;;;6.03;1.80;;;;;;;;;;4974305;28;20031;-63
2023/04/13 05:37:00;;;;;;;4.30;1.52;;;;;;;;;;4975368;28;20483;-64
2023/04/13 05:39:27;;;;;;;5.63;1.73;;;;;;;;;;4975258;28;20035;-63
2023/04/13 05:41:53;;;;;;;7.03;2.30;;;;;;;;;;4974444;28;20042;-64
2023/04/13 05:44:19;;;;;;;5.68;1.77;;;;;;;;;;4974915;28;20019;-64
2023/04/13 05:46:46;;;;;;;5.18;1.88;;;;;;;;;;4974823;28;20031;-64
2023/04/13 05:49:12;;;;;;;4.93;1.67;;;;;;;;;;4975045;28;20038;-63
2023/04/13 05:51:38;;;;;;;5.30;1.88;;;;;;;;;;4974582;28;20042;-63
2023/04/13 05:54:05;;;;;;;5.35;1.60;;;;;;;;;;4974894;28;20023;-64
2023/04/13 05:56:31;;;;;;;4.82;1.77;;;;;;;;;;4974725;28;20532;-63
2023/04/13 05:58:57;;;;;;;5.82;2.20;;;;;;;;;;4974339;28;20084;-63
2023/04/13 06:01:24;;;;;;;8.30;2.03;;;;;;;;;;4974000;28;20034;-64
2023/04/13 06:03:51;;;;;;;4.97;1.73;;;;;;;;;;4974112;28;20162;-64
2023/04/13 06:06:17;;;;;;;5.80;1.75;;;;;;;;;;4974552;28;20030;-64
2023/04/13 06:08:43;;;;;;;8.20;1.95;;;;;;;;;;4974208;28;20118;-64
2023/04/13 06:11:10;;;;;;;8.05;1.83;;;;;;;;;;4974656;28;20023;-64
2023/04/13 06:13:37;;;;;;;7.80;2.20;;;;;;;;;;4973398;28;20506;-64
2023/04/13 06:16:03;;;;;;;6.30;1.75;;;;;;;;;;4967906;28;20115;-64
2023/04/13 06:18:29;;;;;;;5.57;1.67;;;;;;;;;;4955759;29;20420;-63
2023/04/13 06:20:57;;;;;;;6.97;2.00;;;;;;;;;;4956703;28;20031;-64
2023/04/13 06:23:23;;;;;;;6.20;1.70;;;;;;;;;;4973957;28;20051;-63
2023/04/13 06:25:49;;;;;;;8.15;2.22;;;;;;;;;;4973959;28;20027;-64
2023/04/13 06:28:16;;;;;;;6.22;1.80;;;;;;;;;;4973541;28;20027;-64
2023/04/13 06:30:42;;;;;;;5.82;2.00;;;;;;;;;;4972909;28;20058;-64
2023/04/13 06:33:08;;;;;;;7.70;2.00;;;;;;;;;;4973248;28;20057;-64
2023/04/13 06:35:35;;;;;;;5.47;1.92;;;;;;;;;;4973619;28;20364;-64
2023/04/13 06:38:01;;;;;;;7.03;1.85;;;;;;;;;;4973985;28;20035;-64
2023/04/13 06:40:27;;;;;;;7.30;1.73;;;;;;;;;;4972164;28;20505;-63
2023/04/13 06:42:54;;;;;;;5.60;1.90;;;;;;;;;;4973269;28;20050;-63
2023/04/13 06:45:20;;;;;;;7.28;2.17;;;;;;;;;;4973570;28;20023;-62
2023/04/13 06:47:47;;;;;;;7.47;2.25;;;;;;;;;;4972982;28;20023;-62
2023/04/13 06:50:14;;;;;;;6.53;1.88;;;;;;;;;;4973758;28;20031;-62
2023/04/13 06:52:44;;;;;;;6.72;2.05;;;;;;;;;;4973165;28;20027;-62
2023/04/13 06:55:10;;;;;;;8.90;2.65;;;;;;;;;;4973170;28;20121;-63
2023/04/13 06:57:36;;;;;;;6.40;1.75;;;;;;;;;;4973226;28;20826;-64
2023/04/13 07:00:05;;;;;;;8.35;2.28;;;;;;;;;;4972988;28;20118;-63
2023/04/13 07:02:31;;;;;;;9.68;2.58;;;;;;;;;;4973396;28;20116;-63
2023/04/13 07:04:57;;;;;;;11.07;2.72;;;;;;;;;;4972801;28;20035;-63
2023/04/13 07:07:23;;;;;;;9.70;2.30;;;;;;;;;;4973150;28;20034;-63
2023/04/13 07:09:49;;;;;;;11.80;2.95;;;;;;;;;;4972714;28;20085;-63
2023/04/13 07:12:15;;;;;;;8.80;2.40;;;;;;;;;;4973296;28;20023;-62
2023/04/13 07:14:42;;;;;;;11.02;2.72;;;;;;;;;;4973002;28;20029;-63
2023/04/13 07:17:08;;;;;;;9.55;2.67;;;;;;;;;;4972738;28;20050;-63
2023/04/13 07:19:34;;;;;;;15.07;3.30;;;;;;;;;;4970875;28;20121;-63
2023/04/13 07:22:01;;;;;;;14.23;2.92;;;;;;;;;;4954288;29;20074;-63
2023/04/13 07:24:27;;;;;;;17.92;3.55;;;;;;;;;;4954066;29;20034;-62
2023/04/13 07:26:56;;;;;;;18.55;3.85;;;;;;;;;;4963994;28;20558;-63
2023/04/13 07:29:22;;;;;;;12.52;3.00;;;;;;;;;;4974816;28;20418;-63
2023/04/13 07:31:49;;;;;;;20.17;3.38;;;;;;;;;;4981937;28;20030;-63
2023/04/13 07:34:15;;;;;;;12.93;2.90;;;;;;;;;;4980610;28;20039;-62
2023/04/13 07:36:41;;;;;;;16.92;3.28;;;;;;;;;;4980487;28;20022;-63
2023/04/13 07:39:08;;;;;;;14.18;2.92;;;;;;;;;;4981990;28;20023;-62
2023/04/13 07:41:34;;;;;;;10.95;2.55;;;;;;;;;;4980456;28;20049;-63
2023/04/13 07:44:02;;;;;;;13.77;2.88;;;;;;;;;;4979722;28;20529;-62
2023/04/13 07:46:28;;;;;;;14.20;3.15;;;;;;;;;;4982130;28;20478;-63
2023/04/13 07:48:54;;;;;;;11.90;2.60;;;;;;;;;;4980311;28;20022;-63
2023/04/13 07:51:20;;;;;;;13.07;2.47;;;;;;;;;;4981162;28;20395;-62
2023/04/13 07:53:46;;;;;;;9.10;2.75;;;;;;;;;;4990491;28;20018;-62
2023/04/13 07:56:13;;;;;;;11.32;2.65;;;;;;;;;;4991635;28;20038;-63
2023/04/13 07:58:39;;;;;;;11.57;3.13;;;;;;;;;;4982600;28;20019;-63
2023/04/13 08:01:05;;;;;;;20.67;3.85;;;;;;;;;;4971734;28;20039;-63
2023/04/13 08:03:35;;;;;;;15.05;2.65;;;;;;;;;;4972449;28;20402;-62
2023/04/13 08:06:01;;;;;;;16.63;3.63;;;;;;;;;;4972816;28;20035;-63
2023/04/13 08:08:28;;;;;;;10.80;2.72;;;;;;;;;;4972607;28;20085;-63
2023/04/13 08:10:54;;;;;;;11.25;2.65;;;;;;;;;;4971147;28;20031;-63
2023/04/13 08:13:22;;;;;;;12.07;2.75;;;;;;;;;;4972353;28;20033;-63
2023/04/13 08:15:48;;;;;;;18.70;3.83;;;;;;;;;;4972117;28;20030;-63
2023/04/13 08:18:14;;;;;;;12.20;2.88;;;;;;;;;;4971911;28;20082;-63
2023/04/13 08:20:40;;;;;;;12.80;3.03;;;;;;;;;;4970782;28;20027;-63
2023/04/13 08:23:06;;;;;;;10.68;2.60;;;;;;;;;;4970992;28;20038;-63
2023/04/13 08:25:33;;;;;;;10.00;2.83;;;;;;;;;;4972218;28;20106;-63
2023/04/13 08:28:00;;;;;;;9.23;2.45;;;;;;;;;;4972430;28;20022;-63
2023/04/13 08:30:27;;;;;;;11.98;2.35;;;;;;;;;;4972436;28;20082;-63
2023/04/13 08:32:53;;;;;;;9.38;2.28;;;;;;;;;;4972132;28;20054;-63
2023/04/13 08:35:19;;;;;;;13.13;3.03;;;;;;;;;;4971041;28;20066;-63
2023/04/13 08:37:45;;;;;;;12.52;3.00;;;;;;;;;;4970016;28;20031;-63
2023/04/13 08:40:12;;;;;;;12.75;2.67;;;;;;;;;;4972451;28;20074;-63
2023/04/13 08:42:38;;;;;;;10.07;2.20;;;;;;;;;;4971688;28;20499;-63
2023/04/13 08:45:05;;;;;;;9.68;3.20;;;;;;;;;;4972630;28;20070;-63
2023/04/13 08:47:31;;;;;;;9.43;2.70;;;;;;;;;;4972642;28;20411;-63
2023/04/13 08:49:57;;;;;;;9.13;2.47;;;;;;;;;;4972134;28;20029;-63
2023/04/13 08:52:24;;;;;;;9.07;2.85;;;;;;;;;;4972420;28;20027;-63
2023/04/13 08:54:51;;;;;;;9.60;2.72;;;;;;;;;;4970633;28;20111;-63
2023/04/13 08:57:18;;;;;;;8.82;2.47;;;;;;;;;;4972094;28;20582;-63
2023/04/13 08:59:44;;;;;;;7.95;2.08;;;;;;;;;;4970793;28;20545;-63
2023/04/13 09:02:10;;;;;;;8.25;2.33;;;;;;;;;;4971926;28;20069;-63
2023/04/13 09:04:37;;;;;;;10.70;2.35;;;;;;;;;;4971908;28;20029;-63
2023/04/13 09:07:04;;;;;;;8.98;2.70;;;;;;;;;;4971997;28;20081;-63
2023/04/13 09:09:31;;;;;;;10.43;2.10;;;;;;;;;;4975231;28;20070;-64
2023/04/13 09:11:58;;;;;;;12.93;3.03;;;;;;;;;;4976146;28;20030;-64
2023/04/13 09:14:24;;;;;;;7.35;1.90;;;;;;;;;;4975922;28;20023;-62
2023/04/13 09:16:50;;;;;;;9.00;2.35;;;;;;;;;;4975472;28;20027;-63
2023/04/13 09:19:17;;;;;;;9.77;2.78;;;;;;;;;;4975562;28;20023;-63
2023/04/13 09:21:43;;;;;;;11.27;2.72;;;;;;;;;;4975303;28;20130;-63
2023/04/13 09:24:10;;;;;;;7.80;1.80;;;;;;;;;;4975611;28;20030;-63
2023/04/13 09:26:42;;;;;;;7.60;1.92;;;;;;;;;;4975317;28;20034;-64
2023/04/13 09:29:11;;;;;;;6.80;1.83;;;;;;;;;;4975353;28;20023;-63
2023/04/13 09:31:38;;;;;;;8.98;2.17;;;;;;;;;;4975005;28;20035;-63
2023/04/13 09:34:05;;;;;;;8.93;2.60;;;;;;;;;;4975505;28;20023;-63
2023/04/13 09:36:31;;;;;;;5.10;1.77;;;;;;;;;;4975670;28;20045;-64
2023/04/13 09:38:57;;;;;;;6.32;2.33;;;;;;;;;;4975653;28;20055;-64
2023/04/13 09:41:34;;;;;;;9.63;2.28;;;;;;;;;;4975188;28;20034;-63
2023/04/13 09:44:00;;;;;;;7.82;2.22;;;;;;;;;;4975315;28;20042;-64
2023/04/13 09:46:26;;;;;;;8.32;2.05;;;;;;;;;;4975152;28;20434;-64
2023/04/13 09:49:00;;;;;;;5.25;1.52;;;;;;;;;;4974990;28;20038;-63
2023/04/13 09:51:27;;;;;;;7.50;2.33;;;;;;;;;;4974831;28;20383;-62
2023/04/13 09:53:53;;;;;;;6.28;1.73;;;;;;;;;;4973611;28;20051;-62
2023/04/13 09:56:19;;;;;;;8.15;2.40;;;;;;;;;;4974812;28;20031;-62
2023/04/13 09:58:46;;;;;;;7.80;2.30;;;;;;;;;;4974775;28;20070;-62
2023/04/13 10:01:14;;;;;;;7.00;2.17;;;;;;;;;;4974645;28;20034;-62
2023/04/13 10:03:41;;;;;;;6.85;1.83;;;;;;;;;;4974695;28;20035;-62
2023/04/13 10:06:07;;;;;;;6.30;1.65;;;;;;;;;;4974810;28;20102;-62
2023/04/13 10:08:37;;;;;;;8.60;2.05;;;;;;;;;;4974572;28;20045;-62
2023/04/13 10:11:03;;;;;;;5.72;1.67;;;;;;;;;;4974588;28;20458;-62
2023/04/13 10:13:35;;;;;;;7.70;2.47;;;;;;;;;;4974975;28;20106;-63
2023/04/13 10:16:11;;;;;;;8.05;1.77;;;;;;;;;;4974902;28;20101;-63
2023/04/13 10:18:58;;;;;;;9.05;1.80;;;;;;;;;;4974051;28;20073;-62
2023/04/13 10:21:27;;;;;;;6.72;2.00;;;;;;;;;;4974358;28;20047;-62
2023/04/13 10:23:53;;;;;;;4.68;1.67;;;;;;;;;;4974089;28;20035;-62
2023/04/13 10:26:29;;;;;;;8.90;1.65;;;;;;;;;;4974403;28;20034;-62
2023/04/13 10:28:55;;;;;;;7.50;1.70;;;;;;;;;;4974270;28;20023;-62
2023/04/13 10:31:21;;;;;;;5.40;1.60;;;;;;;;;;4974200;28;20037;-63
2023/04/13 10:33:48;;;;;;;6.63;1.95;;;;;;;;;;4974092;28;20022;-62
2023/04/13 10:36:14;;;;;;;4.80;1.40;;;;;;;;;;4974098;28;20049;-62
2023/04/13 10:38:43;;;;;;;6.03;1.75;;;;;;;;;;4973865;28;20031;-62
2023/04/13 10:41:09;;;;;;;7.68;2.10;;;;;;;;;;4973978;28;20510;-63
2023/04/13 10:43:35;;;;;;;6.70;2.10;;;;;;;;;;4973843;28;20451;-62
2023/04/13 10:46:05;;;;;;;6.15;1.60;;;;;;;;;;4974424;28;20022;-62
2023/04/13 10:48:31;;;;;;;5.68;1.60;;;;;;;;;;4974346;28;20031;-62
2023/04/13 10:50:58;;;;;;;5.40;1.77;;;;;;;;;;4974113;28;20149;-63
2023/04/13 10:53:24;;;;;;;6.82;1.80;;;;;;;;;;4973708;28;20042;-63
2023/04/13 10:55:50;;;;;;;7.18;1.50;;;;;;;;;;4973694;28;20561;-62
2023/04/13 10:58:17;;;;;;;4.53;1.58;;;;;;;;;;4973824;28;20026;-62
2023/04/13 11:00:44;;;;;;;6.07;1.40;;;;;;;;;;4973487;28;20034;-62
2023/04/13 11:03:10;;;;;;;3.03;1.10;;;;;;;;;;4973629;28;20110;-62
2023/04/13 11:05:36;;;;;;;5.95;1.65;;;;;;;;;;4973485;28;20415;-62
2023/04/13 11:08:03;;;;;;;4.63;1.27;;;;;;;;;;4973933;28;20034;-62
2023/04/13 11:10:30;;;;;;;6.20;1.80;;;;;;;;;;4973868;28;20110;-62
2023/04/13 11:12:57;;;;;;;5.82;1.60;;;;;;;;;;4973419;28;20041;-62
2023/04/13 11:15:24;;;;;;;6.40;1.98;;;;;;;;;;4973455;28;20066;-63
2023/04/13 11:17:51;;;;;;;7.05;1.63;;;;;;;;;;4973136;28;20027;-63
2023/04/13 11:20:17;;;;;;;6.28;1.75;;;;;;;;;;4973506;28;20033;-62
2023/04/13 11:22:44;;;;;;;5.72;1.40;;;;;;;;;;4972937;28;20031;-62
2023/04/13 11:25:10;;;;;;;7.43;1.83;;;;;;;;;;4973224;28;20027;-62
2023/04/13 11:27:36;;;;;;;6.63;1.42;;;;;;;;;;4973048;28;20400;-62
2023/04/13 11:30:04;;;;;;;5.60;1.63;;;;;;;;;;4973101;28;20023;-63
2023/04/13 11:32:31;;;;;;;5.05;1.48;;;;;;;;;;4972947;28;20042;-63
2023/04/13 11:35:07;;;;;;;5.90;1.80;;;;;;;;;;4973586;28;20027;-63
2023/04/13 11:37:40;;;;;;;6.45;1.70;;;;;;;;;;4972929;28;20030;-62
2023/04/13 11:40:13;;;;;;;6.35;1.70;;;;;;;;;;4973116;28;20037;-62
2023/04/13 11:42:46;;;;;;;4.85;1.15;;;;;;;;;;4972547;28;20054;-62
2023/04/13 11:45:16;;;;;;;8.40;1.98;;;;;;;;;;4973066;28;20027;-62
2023/04/13 11:47:43;;;;;;;3.80;1.20;;;;;;;;;;4972721;28;20050;-62
2023/04/13 11:50:09;;;;;;;7.50;1.52;;;;;;;;;;4972977;28;20435;-62
2023/04/13 11:52:35;;;;;;;4.40;1.33;;;;;;;;;;4972641;28;20031;-62
2023/04/13 11:55:03;;;;;;;3.92;1.17;;;;;;;;;;4973165;28;20035;-62
2023/04/13 11:57:29;;;;;;;4.35;1.33;;;;;;;;;;4972955;28;20038;-62
2023/04/13 11:59:55;;;;;;;5.50;1.50;;;;;;;;;;4972546;28;20510;-62
2023/04/13 12:02:30;;;;;;;4.68;1.30;;;;;;;;;;4972674;28;20423;-62
2023/04/13 12:04:57;;;;;;;4.18;1.30;;;;;;;;;;4972546;28;20022;-62
2023/04/13 12:07:23;;;;;;;4.50;1.30;;;;;;;;;;4972676;28;20037;-62
2023/04/13 12:09:50;;;;;;;4.90;1.55;;;;;;;;;;4972423;28;20074;-62
2023/04/13 12:12:21;;;;;;;4.70;1.75;;;;;;;;;;4972665;28;20376;-64
2023/04/13 12:14:57;;;;;;;7.07;1.88;;;;;;;;;;4972424;28;20063;-64
2023/04/13 12:17:30;;;;;;;4.78;1.48;;;;;;;;;;4972519;28;20027;-63
2023/04/13 12:19:57;;;;;;;6.18;1.80;;;;;;;;;;4972303;28;20097;-63
2023/04/13 12:22:23;;;;;;;5.72;1.20;;;;;;;;;;4972283;28;20039;-64
2023/04/13 12:24:49;;;;;;;6.35;1.75;;;;;;;;;;4971981;28;20495;-64
2023/04/13 12:27:16;;;;;;;6.93;1.45;;;;;;;;;;4972400;28;20018;-64
2023/04/13 12:29:42;;;;;;;3.67;1.33;;;;;;;;;;4972122;28;20494;-64
2023/04/13 12:32:15;;;;;;;3.45;1.38;;;;;;;;;;4972513;28;20070;-64
2023/04/13 12:34:42;;;;;;;5.28;1.83;;;;;;;;;;4971039;28;20034;-64
2023/04/13 12:37:08;;;;;;;4.28;1.33;;;;;;;;;;4972242;28;20031;-63
2023/04/13 12:39:35;;;;;;;5.28;1.45;;;;;;;;;;4972165;28;20058;-63
2023/04/13 12:42:01;;;;;;;4.95;1.30;;;;;;;;;;4972965;28;20034;-63
2023/04/13 12:44:27;;;;;;;5.75;1.40;;;;;;;;;;4976604;28;20458;-63
2023/04/13 12:46:53;;;;;;;5.70;1.98;;;;;;;;;;4976007;28;20030;-63
2023/04/13 12:49:19;;;;;;;5.20;1.30;;;;;;;;;;4976109;28;20483;-64
2023/04/13 12:51:45;;;;;;;5.78;1.27;;;;;;;;;;4975969;28;20027;-64
2023/04/13 12:54:16;;;;;;;4.10;1.35;;;;;;;;;;4976180;28;20030;-64
2023/04/13 12:56:42;;;;;;;4.78;1.40;;;;;;;;;;4975674;28;20034;-64
2023/04/13 12:59:08;;;;;;;3.85;1.10;;;;;;;;;;4976155;28;20026;-63
2023/04/13 13:01:37;;;;;;;2.85;1.10;;;;;;;;;;4975802;28;20125;-64
2023/04/13 13:04:04;;;;;;;5.93;1.45;;;;;;;;;;4975851;28;20023;-63
2023/04/13 13:06:30;;;;;;;3.50;1.02;;;;;;;;;;4976227;28;20026;-64
2023/04/13 13:08:56;;;;;;;4.35;1.50;;;;;;;;;;4975676;28;20049;-64
2023/04/13 13:11:22;;;;;;;3.97;1.55;;;;;;;;;;4975843;28;20031;-64
2023/04/13 13:13:48;;;;;;;3.83;1.35;;;;;;;;;;4975668;28;20027;-64
2023/04/13 13:16:14;;;;;;;5.38;1.73;;;;;;;;;;4975756;28;20026;-64
2023/04/13 13:18:40;;;;;;;2.95;1.10;;;;;;;;;;4975494;28;20072;-64
2023/04/13 13:21:06;;;;;;;5.57;1.67;;;;;;;;;;4975603;28;20483;-63
2023/04/13 13:23:32;;;;;;;5.53;1.50;;;;;;;;;;4975925;28;20066;-62
2023/04/13 13:25:57;;;;;;;5.10;1.38;;;;;;;;;;4975870;28;20050;-64
2023/04/13 13:28:23;;;;;;;4.28;1.50;;;;;;;;;;4975504;28;20031;-64
2023/04/13 13:30:50;;;;;;;3.95;1.20;;;;;;;;;;4975251;28;20471;-64
2023/04/13 13:33:15;;;;;;;4.63;1.48;;;;;;;;;;4975256;28;20499;-64
2023/04/13 13:35:41;;;;;;;4.95;1.77;;;;;;;;;;4975238;28;20099;-64
2023/04/13 13:38:08;;;;;;;3.80;1.40;;;;;;;;;;4975431;28;20023;-63
2023/04/13 13:40:34;;;;;;;4.45;1.65;;;;;;;;;;4974929;28;20031;-63
2023/04/13 13:43:00;;;;;;;5.00;1.23;;;;;;;;;;4974237;28;20427;-64
2023/04/13 13:45:25;;;;;;;5.60;1.80;;;;;;;;;;4975195;28;20035;-64
2023/04/13 13:47:52;;;;;;;4.15;1.38;;;;;;;;;;4974975;28;20806;-64
2023/04/13 13:50:20;;;;;;;6.20;1.63;;;;;;;;;;4975284;28;20030;-64
2023/04/13 13:52:46;;;;;;;5.38;1.50;;;;;;;;;;4974691;28;20058;-64
2023/04/13 13:55:12;;;;;;;4.95;1.33;;;;;;;;;;4974200;28;20089;-64
2023/04/13 13:57:38;;;;;;;4.57;1.42;;;;;;;;;;4974766;28;20331;-63
2023/04/13 14:00:13;;;;;;;3.08;1.02;;;;;;;;;;4974959;28;20023;-64
2023/04/13 14:02:40;;;;;;;;;;;;;;;;;;4975120;28;20041;-64
2023/04/13 14:05:07;;;;;;;;;;;;;;;;;;4975313;28;19921;-64
2023/04/13 14:07:33;;;;;;;3.97;1.45;;;;;;;;;;4974627;28;20063;-63
2023/04/13 14:09:58;;;;;;;4.00;1.60;;;;;;;;;;4975045;28;20030;-63
2023/04/13 14:12:25;;;;;;;4.07;1.13;;;;;;;;;;4974652;28;20022;-62
2023/04/13 14:14:51;;;;;;;4.43;1.45;;;;;;;;;;4974457;28;20372;-64
2023/04/13 14:17:17;;;;;;;3.20;1.08;;;;;;;;;;4974531;28;20026;-63
2023/04/13 14:19:43;;;;;;;4.70;1.40;;;;;;;;;;4974475;28;20046;-63
2023/04/13 14:22:09;;;;;;;4.03;1.08;;;;;;;;;;4974713;28;20395;-64
2023/04/13 14:24:35;;;;;;;4.43;1.48;;;;;;;;;;4974360;28;20050;-63
2023/04/13 14:27:01;;;;;;;6.00;1.80;;;;;;;;;;4974710;28;20035;-63
2023/04/13 14:29:26;;;;;;;4.63;1.95;;;;;;;;;;4974386;28;20033;-64
2023/04/13 14:31:52;;;;;;;3.63;1.50;;;;;;;;;;4974162;28;20043;-63
2023/04/13 14:34:18;;;;;;;4.70;1.73;;;;;;;;;;4974347;28;20387;-62
2023/04/13 14:36:44;;;;;;;4.90;1.65;;;;;;;;;;4974085;28;20030;-64
2023/04/13 14:39:10;;;;;;;3.65;1.45;;;;;;;;;;4974292;28;20029;-64
2023/04/13 14:41:36;;;;;;;3.45;1.00;;;;;;;;;;4973950;28;20117;-63